createdAt,value
2023-04-14T00:00:13.569Z,100974.44
2023-04-14T00:02:42.617Z,100970.16
2023-04-14T00:05:10.782Z,100978.22
2023-04-14T00:07:38.446Z,100977.66
2023-04-14T00:10:06.918Z,100981.16
2023-04-14T00:12:34.537Z,100989.06
2023-04-14T00:15:02.132Z,100998.78
2023-04-14T00:17:29.804Z,100999.34
2023-04-14T00:19:59.885Z,100991.75
2023-04-14T00:22:27.533Z,100992.19
2023-04-14T00:24:55.197Z,101003.03
2023-04-14T00:27:22.826Z,101007.75
2023-04-14T00:29:50.454Z,101008.34
2023-04-14T00:32:18.156Z,101005.88
2023-04-14T00:34:45.926Z,101006.84
2023-04-14T00:37:14.911Z,101013.34
2023-04-14T00:39:42.553Z,101007.69
2023-04-14T00:42:10.187Z,101011.47
2023-04-14T00:44:38.124Z,101008.94
2023-04-14T00:47:06.668Z,101000.91
2023-04-14T00:49:34.661Z,101012.81
2023-04-14T00:52:02.676Z,101014.88
2023-04-14T00:54:33.563Z,101015.03
2023-04-14T00:57:01.769Z,101028.47
2023-04-14T00:59:29.885Z,101023.50
2023-04-14T01:01:58.153Z,101020.00
2023-04-14T01:04:33.572Z,101019.19
2023-04-14T01:07:04.533Z,101031.53
2023-04-14T01:09:33.532Z,101039.34
2023-04-14T01:12:10.405Z,101035.75
2023-04-14T01:14:43.963Z,101038.41
2023-04-14T01:17:18.225Z,101042.28
2023-04-14T01:20:02.204Z,101052.44
2023-04-14T01:22:33.386Z,101049.13
2023-04-14T01:25:39.529Z,101050.66
2023-04-14T01:28:21.793Z,101055.78
2023-04-14T01:31:06.117Z,101057.47
2023-04-14T01:33:39.274Z,101050.41
2023-04-14T01:36:11.176Z,101046.38
2023-04-14T01:38:41.003Z,101045.13
2023-04-14T01:41:12.059Z,101037.78
2023-04-14T01:43:43.327Z,101041.66
2023-04-14T01:46:15.232Z,101048.88
2023-04-14T01:48:46.208Z,101049.16
2023-04-14T01:51:18.196Z,101056.47
2023-04-14T01:53:46.919Z,101056.75
2023-04-14T01:56:17.369Z,101050.94
2023-04-14T01:58:47.585Z,101054.81
2023-04-14T02:01:17.008Z,101061.19
2023-04-14T02:03:47.544Z,101069.34
2023-04-14T02:06:17.360Z,101074.63
2023-04-14T02:08:45.756Z,101065.19
2023-04-14T02:11:15.853Z,101056.75
2023-04-14T02:13:44.886Z,101057.69
2023-04-14T02:16:13.370Z,101056.19
2023-04-14T02:18:42.391Z,101068.63
2023-04-14T02:21:15.026Z,101065.19
2023-04-14T02:23:42.758Z,101074.31
2023-04-14T02:26:13.934Z,101078.72
2023-04-14T02:28:47.805Z,101075.53
2023-04-14T02:31:21.351Z,101078.56
2023-04-14T02:33:53.416Z,101083.84
2023-04-14T02:36:29.094Z,101070.94
2023-04-14T02:38:59.794Z,101077.59
2023-04-14T02:41:29.852Z,101076.06
2023-04-14T02:44:05.062Z,101085.16
2023-04-14T02:46:37.024Z,101077.13
2023-04-14T02:49:06.135Z,101078.69
2023-04-14T02:51:37.073Z,101082.31
2023-04-14T02:54:06.537Z,101085.06
2023-04-14T02:56:35.885Z,101083.41
2023-04-14T02:59:04.185Z,101085.47
2023-04-14T03:01:33.710Z,101091.44
2023-04-14T03:04:02.783Z,101086.44
2023-04-14T03:06:31.749Z,101082.13
2023-04-14T03:09:02.274Z,101078.81
2023-04-14T03:11:30.818Z,101072.13
2023-04-14T03:14:00.372Z,101077.53
2023-04-14T03:16:30.783Z,101078.66
2023-04-14T03:18:59.739Z,101082.38
2023-04-14T03:21:30.108Z,101082.75
2023-04-14T03:24:00.772Z,101092.44
2023-04-14T03:26:31.140Z,101087.44
2023-04-14T03:29:02.021Z,101088.53
2023-04-14T03:31:33.707Z,101092.16
2023-04-14T03:34:04.238Z,101098.38
2023-04-14T03:36:32.879Z,101092.69
2023-04-14T03:39:03.345Z,101094.53
2023-04-14T03:41:34.215Z,101089.53
2023-04-14T03:44:05.050Z,101096.84
2023-04-14T03:46:32.785Z,101099.72
2023-04-14T03:49:02.269Z,101096.66
2023-04-14T03:51:33.183Z,101103.00
2023-04-14T03:54:03.575Z,101098.84
2023-04-14T03:56:37.987Z,101101.63
2023-04-14T03:59:09.557Z,101098.16
2023-04-14T04:01:39.165Z,101104.09
2023-04-14T04:04:08.961Z,101110.31
2023-04-14T04:06:37.542Z,101110.19
2023-04-14T04:09:07.324Z,101114.50
2023-04-14T04:11:36.542Z,101119.34
2023-04-14T04:14:07.132Z,101122.56
2023-04-14T04:16:36.867Z,101118.41
2023-04-14T04:19:07.430Z,101128.19
2023-04-14T04:21:37.458Z,101126.66
2023-04-14T04:24:08.477Z,101127.75
2023-04-14T04:26:36.636Z,101131.34
2023-04-14T04:29:05.631Z,101138.97
2023-04-14T04:31:34.855Z,101139.44
2023-04-14T04:34:04.326Z,101142.63
2023-04-14T04:36:32.901Z,101149.16
2023-04-14T04:39:00.892Z,101145.28
2023-04-14T04:41:31.237Z,101154.59
2023-04-14T04:43:59.994Z,101152.41
2023-04-14T04:46:51.462Z,101159.66
2023-04-14T04:49:19.110Z,101161.03
2023-04-14T04:51:47.050Z,101160.78
2023-04-14T04:54:14.722Z,101161.63
2023-04-14T04:56:43.742Z,101168.41
2023-04-14T04:59:11.758Z,101171.75
2023-04-14T05:01:39.462Z,101165.13
2023-04-14T05:04:07.536Z,101164.59
2023-04-14T05:06:38.270Z,101169.44
2023-04-14T05:09:06.661Z,101169.63
2023-04-14T05:11:34.832Z,101174.22
2023-04-14T05:14:04.449Z,101178.41
2023-04-14T05:16:32.084Z,101173.75
2023-04-14T05:19:00.474Z,101187.47
2023-04-14T05:21:28.348Z,101183.50
2023-04-14T05:23:56.078Z,101179.47
2023-04-14T05:26:38.804Z,101182.69
2023-04-14T05:29:12.800Z,101185.31
2023-04-14T05:31:40.524Z,101174.63
2023-04-14T05:34:08.348Z,101181.09
2023-04-14T05:36:35.997Z,101172.75
2023-04-14T05:39:03.646Z,101178.53
2023-04-14T05:41:31.252Z,101175.59
2023-04-14T05:43:58.940Z,101170.00
2023-04-14T05:46:28.001Z,101174.66
2023-04-14T05:48:56.830Z,101171.22
2023-04-14T05:51:25.385Z,101173.31
2023-04-14T05:53:53.052Z,101180.81
2023-04-14T05:56:20.760Z,101172.50
2023-04-14T05:58:48.383Z,101177.09
2023-04-14T06:01:16.475Z,101173.84
2023-04-14T06:03:45.581Z,101176.94
2023-04-14T06:06:13.497Z,101185.34
2023-04-14T06:08:41.508Z,101175.31
2023-04-14T06:11:09.098Z,101181.31
2023-04-14T06:13:36.746Z,101177.22
2023-04-14T06:16:04.616Z,101184.31
2023-04-14T06:18:32.389Z,101177.56
2023-04-14T06:21:02.777Z,101180.00
2023-04-14T06:23:31.560Z,101173.59
2023-04-14T06:25:59.193Z,101172.63
2023-04-14T06:28:26.859Z,101169.81
2023-04-14T06:30:54.632Z,101169.50
2023-04-14T06:33:22.275Z,101180.59
2023-04-14T06:35:49.894Z,101169.34
2023-04-14T06:38:18.844Z,101169.47
2023-04-14T06:40:46.439Z,101171.16
2023-04-14T06:43:14.937Z,101158.38
2023-04-14T06:45:42.612Z,101168.63
2023-04-14T06:48:11.479Z,101172.88
2023-04-14T06:50:39.264Z,101168.59
2023-04-14T06:53:07.173Z,101167.69
2023-04-14T06:55:37.140Z,101158.31
2023-04-14T06:58:04.766Z,101167.97
2023-04-14T07:00:32.659Z,101165.63
2023-04-14T07:03:00.518Z,101156.78
2023-04-14T07:05:28.311Z,101156.66
2023-04-14T07:07:56.077Z,101150.03
2023-04-14T07:10:23.691Z,101162.22
2023-04-14T07:12:52.697Z,101157.63
2023-04-14T07:15:20.498Z,101147.84
2023-04-14T07:17:48.549Z,101154.91
2023-04-14T07:20:16.493Z,101161.16
2023-04-14T07:22:44.050Z,101157.47
2023-04-14T07:25:11.667Z,101157.94
2023-04-14T07:27:45.042Z,101150.22
2023-04-14T07:30:19.440Z,101159.06
2023-04-14T07:32:47.923Z,101165.63
2023-04-14T07:35:15.605Z,101166.09
2023-04-14T07:37:43.252Z,101172.88
2023-04-14T07:40:11.596Z,101171.19
2023-04-14T07:42:39.235Z,101169.09
2023-04-14T07:45:07.872Z,101167.03
2023-04-14T07:47:37.285Z,101177.19
2023-04-14T07:50:05.868Z,101173.78
2023-04-14T07:52:33.456Z,101172.06
2023-04-14T07:55:01.013Z,101175.09
2023-04-14T07:57:28.824Z,101170.28
2023-04-14T07:59:56.435Z,101172.34
2023-04-14T08:02:24.219Z,101175.66
2023-04-14T08:04:53.798Z,101174.28
2023-04-14T08:07:21.531Z,101171.97
2023-04-14T08:09:50.627Z,101176.75
2023-04-14T08:12:18.296Z,101185.50
2023-04-14T08:14:47.628Z,101179.22
2023-04-14T08:17:15.313Z,101169.34
2023-04-14T08:19:43.075Z,101179.06
2023-04-14T08:22:12.598Z,101177.69
2023-04-14T08:24:40.617Z,101169.94
2023-04-14T08:27:08.226Z,101178.38
2023-04-14T08:29:35.941Z,101175.97
2023-04-14T08:32:04.705Z,101174.22
2023-04-14T08:34:32.470Z,101180.00
2023-04-14T08:37:00.613Z,101175.94
2023-04-14T08:39:29.716Z,101177.28
2023-04-14T08:41:58.108Z,101170.81
2023-04-14T08:44:26.067Z,101171.97
2023-04-14T08:46:53.887Z,101166.44
2023-04-14T08:49:29.427Z,101176.63
2023-04-14T08:51:59.591Z,101168.34
2023-04-14T08:54:29.608Z,101169.84
2023-04-14T08:56:58.480Z,101171.94
2023-04-14T08:59:26.882Z,101175.00
2023-04-14T09:01:56.647Z,101169.16
2023-04-14T09:04:24.910Z,101177.13
2023-04-14T09:06:53.413Z,101172.13
2023-04-14T09:09:22.174Z,101177.31
2023-04-14T09:11:52.610Z,101174.50
2023-04-14T09:14:21.682Z,101176.47
2023-04-14T09:16:52.480Z,101179.97
2023-04-14T09:19:21.928Z,101177.94
2023-04-14T09:21:54.437Z,101178.78
2023-04-14T09:24:30.009Z,101178.25
2023-04-14T09:27:03.394Z,101186.56
2023-04-14T09:29:31.476Z,101177.94
2023-04-14T09:31:59.258Z,101170.72
2023-04-14T09:34:28.055Z,101174.22
2023-04-14T09:37:04.396Z,101181.25
2023-04-14T09:39:32.357Z,101169.09
2023-04-14T09:42:01.600Z,101171.38
2023-04-14T09:44:29.651Z,101181.50
2023-04-14T09:46:58.903Z,101163.13
2023-04-14T09:49:26.662Z,101176.94
2023-04-14T09:51:55.133Z,101166.00
2023-04-14T09:54:26.708Z,101169.13
2023-04-14T09:56:54.634Z,101169.75
2023-04-14T09:59:34.208Z,101165.19
2023-04-14T10:02:05.591Z,101162.28
2023-04-14T10:04:33.538Z,101162.28
2023-04-14T10:07:01.885Z,101166.41
2023-04-14T10:09:31.013Z,101164.78
2023-04-14T10:12:10.208Z,101165.97
2023-04-14T10:14:39.884Z,101166.41
2023-04-14T10:17:08.090Z,101162.66
2023-04-14T10:19:37.609Z,101166.94
2023-04-14T10:22:06.561Z,101172.97
2023-04-14T10:24:34.762Z,101174.56
2023-04-14T10:27:05.026Z,101172.72
2023-04-14T10:29:33.151Z,101180.22
2023-04-14T10:32:06.450Z,101181.88
2023-04-14T10:34:35.102Z,101178.31
2023-04-14T10:37:15.380Z,101175.00
2023-04-14T10:39:43.727Z,101171.69
2023-04-14T10:42:11.558Z,101174.16
2023-04-14T10:44:39.627Z,101174.38
2023-04-14T10:47:09.081Z,101170.91
2023-04-14T10:49:38.654Z,101160.78
2023-04-14T10:52:08.034Z,101168.63
2023-04-14T10:54:50.084Z,101160.59
2023-04-14T10:57:18.782Z,101157.91
2023-04-14T10:59:47.764Z,101163.47
2023-04-14T11:02:25.722Z,101152.53
2023-04-14T11:05:05.059Z,101159.19
2023-04-14T11:07:38.056Z,101159.78
2023-04-14T11:10:27.596Z,101159.78
2023-04-14T11:13:03.816Z,101157.50
2023-04-14T11:15:44.860Z,101161.88
2023-04-14T11:18:15.923Z,101158.34
2023-04-14T11:20:43.913Z,101157.56
2023-04-14T11:23:13.680Z,101153.78
2023-04-14T11:25:41.500Z,101148.59
2023-04-14T11:28:09.133Z,101164.09
2023-04-14T11:30:36.767Z,101145.44
2023-04-14T11:33:05.504Z,101149.94
2023-04-14T11:35:34.762Z,101145.41
2023-04-14T11:38:02.696Z,101146.16
2023-04-14T11:40:30.528Z,101140.91
2023-04-14T11:43:00.584Z,101146.16
2023-04-14T11:45:29.739Z,101147.72
2023-04-14T11:47:58.980Z,101144.59
2023-04-14T11:50:27.229Z,101145.41
2023-04-14T11:52:59.529Z,101144.34
2023-04-14T11:55:28.074Z,101146.03
2023-04-14T11:57:57.031Z,101143.50
2023-04-14T12:00:25.455Z,101148.53
2023-04-14T12:02:53.408Z,101146.41
2023-04-14T12:05:22.943Z,101140.75
2023-04-14T12:07:51.275Z,101140.94
2023-04-14T12:10:21.348Z,101138.63
2023-04-14T12:12:48.977Z,101147.34
2023-04-14T12:15:17.151Z,101137.84
2023-04-14T12:17:45.004Z,101141.53
2023-04-14T12:20:17.987Z,101140.06
2023-04-14T12:22:45.788Z,101145.88
2023-04-14T12:25:14.122Z,101142.00
2023-04-14T12:27:43.426Z,101147.56
2023-04-14T12:30:13.252Z,101139.75
2023-04-14T12:32:41.876Z,101135.41
2023-04-14T12:35:10.268Z,101130.22
2023-04-14T12:37:38.781Z,101134.81
2023-04-14T12:40:07.827Z,101130.44
2023-04-14T12:42:48.200Z,101139.31
2023-04-14T12:45:17.141Z,101128.78
2023-04-14T12:47:54.209Z,101129.22
2023-04-14T12:50:27.969Z,101129.22
2023-04-14T12:52:56.646Z,101126.28
2023-04-14T12:55:25.749Z,101125.28
2023-04-14T12:57:55.056Z,101118.22
2023-04-14T13:00:23.614Z,101119.44
2023-04-14T13:02:52.168Z,101121.28
2023-04-14T13:05:20.505Z,101121.66
2023-04-14T13:07:48.212Z,101125.66
2023-04-14T13:10:16.362Z,101126.47
2023-04-14T13:12:44.373Z,101114.75
2023-04-14T13:15:27.971Z,101120.19
2023-04-14T13:18:01.262Z,101124.94
2023-04-14T13:20:30.396Z,101122.53
2023-04-14T13:22:57.969Z,101121.97
2023-04-14T13:25:25.898Z,101127.38
2023-04-14T13:27:54.130Z,101112.31
2023-04-14T13:30:23.260Z,101108.63
2023-04-14T13:32:50.932Z,101111.75
2023-04-14T13:35:18.770Z,101108.41
2023-04-14T13:37:46.882Z,101119.13
2023-04-14T13:40:14.579Z,101109.06
2023-04-14T13:42:42.163Z,101109.31
2023-04-14T13:45:11.012Z,101116.72
2023-04-14T13:47:40.017Z,101108.84
2023-04-14T13:50:08.703Z,101103.69
2023-04-14T13:52:36.317Z,101101.66
2023-04-14T13:55:03.983Z,101105.94
2023-04-14T13:57:31.834Z,101101.84
2023-04-14T13:59:59.620Z,101092.81
2023-04-14T14:02:27.376Z,101095.84
2023-04-14T14:04:56.471Z,101097.56
2023-04-14T14:07:24.083Z,101085.19
2023-04-14T14:09:51.937Z,101091.56
2023-04-14T14:12:19.553Z,101082.09
2023-04-14T14:14:47.181Z,101087.03
2023-04-14T14:17:14.760Z,101071.41
2023-04-14T14:19:43.408Z,101076.16
2023-04-14T14:22:12.459Z,101072.44
2023-04-14T14:24:41.232Z,101077.59
2023-04-14T14:27:08.834Z,101080.91
2023-04-14T14:29:36.551Z,101073.06
2023-04-14T14:32:04.473Z,101084.19
2023-04-14T14:34:32.095Z,101079.88
2023-04-14T14:36:59.726Z,101089.97
2023-04-14T14:39:32.041Z,101087.47
2023-04-14T14:41:59.990Z,101088.69
2023-04-14T14:44:27.575Z,101080.00
2023-04-14T14:46:55.322Z,101073.81
2023-04-14T14:49:22.971Z,101073.19
2023-04-14T14:51:50.731Z,101084.91
2023-04-14T14:54:18.318Z,101069.22
2023-04-14T14:56:47.402Z,101086.31
2023-04-14T14:59:16.223Z,101085.66
2023-04-14T15:01:43.970Z,101075.81
2023-04-14T15:04:12.282Z,101081.94
2023-04-14T15:06:40.299Z,101081.78
2023-04-14T15:09:07.915Z,101085.88
2023-04-14T15:11:35.662Z,101092.47
2023-04-14T15:14:05.242Z,101087.75
2023-04-14T15:16:33.246Z,101080.78
2023-04-14T15:19:00.916Z,101083.66
2023-04-14T15:21:28.550Z,101081.22
2023-04-14T15:23:56.261Z,101085.75
2023-04-14T15:26:23.866Z,101089.13
2023-04-14T15:28:51.448Z,101089.34
2023-04-14T15:31:20.776Z,101085.25
2023-04-14T15:33:48.644Z,101081.41
2023-04-14T15:36:16.907Z,101085.34
2023-04-14T15:38:44.571Z,101081.53
2023-04-14T15:41:12.135Z,101074.72
2023-04-14T15:43:39.814Z,101078.63
2023-04-14T15:46:07.498Z,101065.25
2023-04-14T15:48:36.607Z,101073.81
2023-04-14T15:51:04.985Z,101075.28
2023-04-14T15:53:32.698Z,101087.72
2023-04-14T15:56:00.505Z,101069.78
2023-04-14T15:58:28.443Z,101076.78
2023-04-14T16:00:56.703Z,101077.78
2023-04-14T16:03:24.576Z,101069.78
2023-04-14T16:06:01.357Z,101091.53
2023-04-14T16:08:28.990Z,101089.06
2023-04-14T16:10:57.024Z,101093.94
2023-04-14T16:13:24.609Z,101097.88
2023-04-14T16:15:52.702Z,101093.56
2023-04-14T16:18:20.340Z,101100.75
2023-04-14T16:20:50.045Z,101090.50
2023-04-14T16:23:19.137Z,101092.50
2023-04-14T16:25:49.644Z,101091.25
2023-04-14T16:28:17.319Z,101086.09
2023-04-14T16:30:45.675Z,101080.72
2023-04-14T16:33:13.423Z,101080.28
2023-04-14T16:35:41.227Z,101079.25
2023-04-14T16:38:09.128Z,101090.44
2023-04-14T16:40:38.695Z,101080.34
2023-04-14T16:43:06.327Z,101078.03
2023-04-14T16:45:34.571Z,101083.78
2023-04-14T16:48:02.304Z,101075.91
2023-04-14T16:50:31.845Z,101089.69
2023-04-14T16:52:59.522Z,101084.72
2023-04-14T16:55:27.137Z,101088.38
2023-04-14T16:57:56.340Z,101079.94
2023-04-14T17:00:25.163Z,101088.16
2023-04-14T17:02:53.140Z,101087.53
2023-04-14T17:05:21.769Z,101093.22
2023-04-14T17:07:49.985Z,101093.78
2023-04-14T17:10:17.652Z,101090.72
2023-04-14T17:12:46.831Z,101086.16
2023-04-14T17:15:15.939Z,101092.56
2023-04-14T17:17:43.919Z,101090.28
2023-04-14T17:20:12.443Z,101094.34
2023-04-14T17:22:40.056Z,101086.09
2023-04-14T17:25:10.719Z,101098.88
2023-04-14T17:27:39.118Z,101087.19
2023-04-14T17:30:10.142Z,101095.19
2023-04-14T17:32:41.679Z,101086.69
2023-04-14T17:35:10.659Z,101091.34
2023-04-14T17:37:38.502Z,101099.50
2023-04-14T17:40:08.221Z,101103.94
2023-04-14T17:42:36.644Z,101100.53
2023-04-14T17:45:05.120Z,101104.41
2023-04-14T17:47:37.649Z,101107.00
2023-04-14T17:50:07.964Z,101108.78
2023-04-14T17:52:36.340Z,101112.31
2023-04-14T17:55:05.431Z,101103.91
2023-04-14T17:57:33.106Z,101121.69
2023-04-14T18:00:01.113Z,101120.22
2023-04-14T18:02:32.756Z,101119.03
2023-04-14T18:05:00.666Z,101129.63
2023-04-14T18:07:29.697Z,101130.34
2023-04-14T18:09:57.496Z,101128.66
2023-04-14T18:12:25.988Z,101145.22
2023-04-14T18:14:54.016Z,101130.75
2023-04-14T18:17:22.211Z,101138.75
2023-04-14T18:19:49.863Z,101130.22
2023-04-14T18:22:18.387Z,101131.22
2023-04-14T18:24:48.130Z,101138.09
2023-04-14T18:29:47.685Z,101137.69
2023-04-14T18:32:15.384Z,101144.75
2023-04-14T18:34:42.938Z,101146.72
2023-04-14T18:37:10.744Z,101143.47
2023-04-14T18:39:38.410Z,101147.75
2023-04-14T18:42:08.264Z,101162.78
2023-04-14T18:44:35.879Z,101158.38
2023-04-14T18:47:03.496Z,101164.41
2023-04-14T18:49:31.085Z,101163.75
2023-04-14T18:51:58.693Z,101151.28
2023-04-14T18:54:26.354Z,101159.28
2023-04-14T18:56:54.047Z,101154.59
2023-04-14T18:59:23.847Z,101157.06
2023-04-14T19:01:52.745Z,101153.59
2023-04-14T19:04:21.365Z,101152.44
2023-04-14T19:06:49.679Z,101152.94
2023-04-14T19:09:17.247Z,101152.63
2023-04-14T19:11:46.087Z,101158.78
2023-04-14T19:14:13.685Z,101148.16
2023-04-14T19:16:42.625Z,101150.66
2023-04-14T19:19:10.365Z,101155.97
2023-04-14T19:21:37.944Z,101163.16
2023-04-14T19:24:05.630Z,101175.09
2023-04-14T19:26:34.248Z,101165.78
2023-04-14T19:29:02.401Z,101156.19
2023-04-14T19:31:30.199Z,101159.16
2023-04-14T19:33:59.617Z,101163.03
2023-04-14T19:36:27.552Z,101169.47
2023-04-14T19:38:55.160Z,101162.03
2023-04-14T19:41:22.853Z,101168.19
2023-04-14T19:43:51.952Z,101171.53
2023-04-14T19:46:19.547Z,101166.22
2023-04-14T19:48:47.151Z,101162.72
2023-04-14T19:51:16.237Z,101166.03
2023-04-14T19:53:47.112Z,101165.19
2023-04-14T19:56:14.899Z,101170.22
2023-04-14T19:58:43.340Z,101182.66
2023-04-14T20:01:11.273Z,101181.53
2023-04-14T20:03:39.142Z,101171.19
2023-04-14T20:06:27.986Z,101174.19
2023-04-14T20:08:55.612Z,101168.38
2023-04-14T20:11:27.170Z,101178.03
2023-04-14T20:13:55.105Z,101172.03
2023-04-14T20:16:23.756Z,101166.41
2023-04-14T20:18:51.633Z,101170.56
2023-04-14T20:21:19.447Z,101167.75
2023-04-14T20:23:48.551Z,101169.03
2023-04-14T20:26:16.442Z,101172.38
2023-04-14T20:28:45.472Z,101166.56
2023-04-14T20:31:13.656Z,101171.69
2023-04-14T20:33:41.264Z,101157.59
2023-04-14T20:36:08.971Z,101158.41
2023-04-14T20:38:37.787Z,101157.75
2023-04-14T20:41:07.027Z,101160.09
2023-04-14T20:43:34.962Z,101156.78
2023-04-14T20:46:03.785Z,101146.50
2023-04-14T20:48:32.170Z,101155.16
2023-04-14T20:51:01.338Z,101153.47
2023-04-14T20:53:29.962Z,101147.81
2023-04-14T20:55:57.607Z,101157.97
2023-04-14T20:58:26.638Z,101155.00
2023-04-14T21:00:54.316Z,101152.53
2023-04-14T21:03:23.711Z,101145.88
2023-04-14T21:05:51.676Z,101151.22
2023-04-14T21:08:19.409Z,101138.94
2023-04-14T21:11:15.962Z,101150.56
2023-04-14T21:15:34.689Z,101154.53
2023-04-14T21:16:23.757Z,101152.53
2023-04-14T21:18:51.519Z,101153.72
2023-04-14T21:21:19.112Z,101153.03
2023-04-14T21:23:46.883Z,101152.22
2023-04-14T21:26:14.536Z,101147.41
2023-04-14T21:28:43.474Z,101148.41
2023-04-14T21:31:11.370Z,101149.25
2023-04-14T21:33:41.552Z,101158.53
2023-04-14T21:36:10.834Z,101150.25
2023-04-14T21:38:39.418Z,101142.59
2023-04-14T21:41:07.763Z,101154.41
2023-04-14T21:43:36.024Z,101148.44
2023-04-14T21:46:05.460Z,101157.03
2023-04-14T21:48:33.281Z,101156.88
2023-04-14T21:51:01.369Z,101151.75
2023-04-14T21:53:28.931Z,101158.56
2023-04-14T21:56:05.320Z,101155.22
2023-04-14T21:58:37.200Z,101156.25
2023-04-14T22:01:07.146Z,101163.03
2023-04-14T22:03:37.210Z,101159.56
2023-04-14T22:06:05.772Z,101156.41
2023-04-14T22:08:33.434Z,101155.91
2023-04-14T22:11:01.377Z,101153.56
2023-04-14T22:13:29.045Z,101161.03
2023-04-14T22:15:56.659Z,101161.88
2023-04-14T22:18:27.538Z,101168.84
2023-04-14T22:20:55.608Z,101163.34
2023-04-14T22:23:23.755Z,101151.25
2023-04-14T22:25:51.529Z,101156.22
2023-04-14T22:28:19.187Z,101159.88
2023-04-14T22:30:46.895Z,101159.19
2023-04-14T22:33:14.807Z,101165.31
2023-04-14T22:35:43.772Z,101165.81
2023-04-14T22:38:11.437Z,101163.81
2023-04-14T22:40:39.198Z,101160.84
2023-04-14T22:43:08.786Z,101164.16
2023-04-14T22:45:37.603Z,101156.53
2023-04-14T22:48:05.416Z,101157.81
2023-04-14T22:50:33.760Z,101150.38
2023-04-14T22:53:02.857Z,101155.53
2023-04-14T22:55:30.622Z,101159.34
2023-04-14T22:57:58.207Z,101156.84
2023-04-14T23:00:26.700Z,101156.34
2023-04-14T23:02:56.167Z,101155.81
2023-04-14T23:05:24.324Z,101159.31
2023-04-14T23:07:52.690Z,101156.84
2023-04-14T23:10:21.739Z,101149.72
2023-04-14T23:12:49.397Z,101154.84
2023-04-14T23:15:17.078Z,101158.13
2023-04-14T23:17:45.142Z,101162.59
2023-04-14T23:20:13.792Z,101159.94
2023-04-14T23:22:41.604Z,101156.13
2023-04-14T23:25:10.620Z,101153.47
2023-04-14T23:27:39.680Z,101146.38
2023-04-14T23:30:08.742Z,101142.75
2023-04-14T23:32:36.654Z,101134.09
2023-04-14T23:35:04.329Z,101142.22
2023-04-14T23:37:31.924Z,101143.22
2023-04-14T23:39:59.552Z,101143.22
2023-04-14T23:42:27.308Z,101144.88
2023-04-14T23:44:56.777Z,101140.41
2023-04-14T23:47:25.167Z,101137.75
2023-04-14T23:49:53.016Z,101150.19
2023-04-14T23:52:21.297Z,101136.94
2023-04-14T23:54:49.319Z,101133.25
2023-04-14T23:57:17.897Z,101138.56
2023-04-14T23:59:45.599Z,101132.59
